Pagina principală
METAR-TAF:

METAR-TAF

Aeroporturi :

Chapecó, Santa Catarina, Brazilia

Latitudine: 27-08-02S, longitudine: 052-39-43W, elevație: 654 m

Observații meteo curente

Raportul a fost făcut în urmă cu 48 de minute, la 11:00 UTC
Vânt 3 kt de la Est/Nord-est
Temperatură 14°C
Umiditate 100%
Presiune 1022 hPa
Vizibilitate de 10 km sau mai mult
nu există nori sub 1.500 m și nici cumulonimbus

METAR: SBCH 181100Z 06003KT CAVOK 14/14 Q1022

Ora: 08:48 (11:48 UTC)


TAF: lipsă

Observații și prognoze meteo pentru peste 4.000 de aeroporturi (rapoarte METAR și TAF).

Stațiile disponibile sunt reprezentate pe hartă prin puncte galbene și roșii.

Țineți indicatorul mouse-ului pe punctul dorit pentru a vedea denumirea stației.

Apoi, faceți clic pentru a vedea observațiile și prognozele meteorologice.

Pentru a schimba harta: Pentru mărire, faceți clic pe butoanele verzi cu cruce neagră; pentru micșorare, pe butonul verde cu o liniuță; pentru hărți învecinate, pe săgețile verzi.


METAR-TAF: